sensor_id;sensor_type;location;lat;lon;timestamp;temperature;humidity
2024;DHT22;1016;48.770;9.154;2023-07-13T00:01:58;23.40;98.70
2024;DHT22;1016;48.770;9.154;2023-07-13T00:04:24;23.40;98.60
2024;DHT22;1016;48.770;9.154;2023-07-13T00:06:50;23.40;98.60
2024;DHT22;1016;48.770;9.154;2023-07-13T00:09:16;23.40;98.50
2024;DHT22;1016;48.770;9.154;2023-07-13T00:11:42;23.30;98.20
2024;DHT22;1016;48.770;9.154;2023-07-13T00:14:08;23.30;98.30
2024;DHT22;1016;48.770;9.154;2023-07-13T00:16:35;23.30;98.20
2024;DHT22;1016;48.770;9.154;2023-07-13T00:19:00;23.20;98.40
2024;DHT22;1016;48.770;9.154;2023-07-13T00:21:26;23.20;98.20
2024;DHT22;1016;48.770;9.154;2023-07-13T00:23:51;23.20;98.00
2024;DHT22;1016;48.770;9.154;2023-07-13T00:26:17;23.10;97.90
2024;DHT22;1016;48.770;9.154;2023-07-13T00:28:43;23.20;97.90
2024;DHT22;1016;48.770;9.154;2023-07-13T00:31:09;23.10;97.40
2024;DHT22;1016;48.770;9.154;2023-07-13T00:33:34;23.10;97.50
2024;DHT22;1016;48.770;9.154;2023-07-13T00:36:00;23.10;97.50
2024;DHT22;1016;48.770;9.154;2023-07-13T00:38:25;23.10;97.50
2024;DHT22;1016;48.770;9.154;2023-07-13T00:40:50;23.10;97.40
2024;DHT22;1016;48.770;9.154;2023-07-13T00:43:17;23.00;97.40
2024;DHT22;1016;48.770;9.154;2023-07-13T00:48:18;23.00;96.90
2024;DHT22;1016;48.770;9.154;2023-07-13T00:50:46;22.90;97.10
2024;DHT22;1016;48.770;9.154;2023-07-13T00:53:12;23.00;97.00
2024;DHT22;1016;48.770;9.154;2023-07-13T00:55:38;23.00;97.20
2024;DHT22;1016;48.770;9.154;2023-07-13T00:58:04;23.00;97.00
2024;DHT22;1016;48.770;9.154;2023-07-13T01:00:31;23.00;97.00
2024;DHT22;1016;48.770;9.154;2023-07-13T01:02:58;23.00;96.90
2024;DHT22;1016;48.770;9.154;2023-07-13T01:05:24;22.90;96.60
2024;DHT22;1016;48.770;9.154;2023-07-13T01:07:50;22.90;96.60
2024;DHT22;1016;48.770;9.154;2023-07-13T01:10:26;22.90;96.50
2024;DHT22;1016;48.770;9.154;2023-07-13T01:12:52;23.00;96.40
2024;DHT22;1016;48.770;9.154;2023-07-13T01:18:03;23.00;96.40
2024;DHT22;1016;48.770;9.154;2023-07-13T01:20:28;23.00;96.40
2024;DHT22;1016;48.770;9.154;2023-07-13T01:22:54;22.90;96.30
2024;DHT22;1016;48.770;9.154;2023-07-13T01:25:20;22.90;96.20
2024;DHT22;1016;48.770;9.154;2023-07-13T01:27:45;22.90;96.00
2024;DHT22;1016;48.770;9.154;2023-07-13T01:30:11;22.90;95.90
2024;DHT22;1016;48.770;9.154;2023-07-13T01:32:36;22.80;95.80
2024;DHT22;1016;48.770;9.154;2023-07-13T01:35:02;22.80;95.90
2024;DHT22;1016;48.770;9.154;2023-07-13T01:37:27;22.80;96.00
2024;DHT22;1016;48.770;9.154;2023-07-13T01:40:02;22.80;96.20
2024;DHT22;1016;48.770;9.154;2023-07-13T01:42:28;22.80;96.20
2024;DHT22;1016;48.770;9.154;2023-07-13T01:44:53;22.80;96.30
2024;DHT22;1016;48.770;9.154;2023-07-13T01:47:19;22.70;96.20
2024;DHT22;1016;48.770;9.154;2023-07-13T01:49:44;22.70;96.20
2024;DHT22;1016;48.770;9.154;2023-07-13T01:52:11;22.70;96.10
2024;DHT22;1016;48.770;9.154;2023-07-13T01:54:36;22.70;96.00
2024;DHT22;1016;48.770;9.154;2023-07-13T01:57:02;22.60;96.00
2024;DHT22;1016;48.770;9.154;2023-07-13T01:59:28;22.60;96.00
2024;DHT22;1016;48.770;9.154;2023-07-13T02:01:53;22.60;96.00
2024;DHT22;1016;48.770;9.154;2023-07-13T02:04:19;22.60;95.90
2024;DHT22;1016;48.770;9.154;2023-07-13T02:06:44;22.50;95.90
2024;DHT22;1016;48.770;9.154;2023-07-13T02:09:10;22.50;96.20
2024;DHT22;1016;48.770;9.154;2023-07-13T02:11:35;22.50;96.10
2024;DHT22;1016;48.770;9.154;2023-07-13T02:14:01;22.50;96.00
2024;DHT22;1016;48.770;9.154;2023-07-13T02:16:27;22.50;96.00
2024;DHT22;1016;48.770;9.154;2023-07-13T02:18:52;22.50;96.10
2024;DHT22;1016;48.770;9.154;2023-07-13T02:21:18;22.40;96.50
2024;DHT22;1016;48.770;9.154;2023-07-13T02:23:43;22.40;97.40
2024;DHT22;1016;48.770;9.154;2023-07-13T02:28:35;22.30;99.90
2024;DHT22;1016;48.770;9.154;2023-07-13T02:31:07;22.40;96.50
2024;DHT22;1016;48.770;9.154;2023-07-13T02:33:33;22.40;96.60
2024;DHT22;1016;48.770;9.154;2023-07-13T02:35:58;22.30;96.80
2024;DHT22;1016;48.770;9.154;2023-07-13T02:38:24;22.30;97.00
2024;DHT22;1016;48.770;9.154;2023-07-13T02:40:49;22.30;97.00
2024;DHT22;1016;48.770;9.154;2023-07-13T02:43:15;22.30;96.90
2024;DHT22;1016;48.770;9.154;2023-07-13T02:45:43;22.20;97.20
2024;DHT22;1016;48.770;9.154;2023-07-13T02:48:08;22.20;97.30
2024;DHT22;1016;48.770;9.154;2023-07-13T02:50:34;22.20;97.20
2024;DHT22;1016;48.770;9.154;2023-07-13T02:52:59;22.20;97.10
2024;DHT22;1016;48.770;9.154;2023-07-13T02:55:25;22.20;97.00
2024;DHT22;1016;48.770;9.154;2023-07-13T02:57:50;22.20;97.00
2024;DHT22;1016;48.770;9.154;2023-07-13T03:00:16;22.20;97.10
2024;DHT22;1016;48.770;9.154;2023-07-13T03:02:41;22.10;97.60
2024;DHT22;1016;48.770;9.154;2023-07-13T03:05:07;22.10;97.80
2024;DHT22;1016;48.770;9.154;2023-07-13T03:07:33;22.10;97.80
2024;DHT22;1016;48.770;9.154;2023-07-13T03:09:58;22.00;97.90
2024;DHT22;1016;48.770;9.154;2023-07-13T03:12:24;22.00;98.00
2024;DHT22;1016;48.770;9.154;2023-07-13T03:14:49;22.00;97.90
2024;DHT22;1016;48.770;9.154;2023-07-13T03:17:15;22.00;97.50
2024;DHT22;1016;48.770;9.154;2023-07-13T03:19:40;22.00;97.80
2024;DHT22;1016;48.770;9.154;2023-07-13T03:22:06;22.00;97.70
2024;DHT22;1016;48.770;9.154;2023-07-13T03:24:34;22.00;97.60
2024;DHT22;1016;48.770;9.154;2023-07-13T03:27:03;22.00;97.60
2024;DHT22;1016;48.770;9.154;2023-07-13T03:29:29;22.00;97.80
2024;DHT22;1016;48.770;9.154;2023-07-13T03:31:54;22.00;97.90
2024;DHT22;1016;48.770;9.154;2023-07-13T03:34:19;22.00;97.40
2024;DHT22;1016;48.770;9.154;2023-07-13T03:36:45;22.00;97.20
2024;DHT22;1016;48.770;9.154;2023-07-13T03:39:10;22.00;97.40
2024;DHT22;1016;48.770;9.154;2023-07-13T03:41:36;22.10;97.50
2024;DHT22;1016;48.770;9.154;2023-07-13T03:44:01;22.10;97.60
2024;DHT22;1016;48.770;9.154;2023-07-13T03:46:27;22.10;97.80
2024;DHT22;1016;48.770;9.154;2023-07-13T03:48:52;22.10;97.70
2024;DHT22;1016;48.770;9.154;2023-07-13T03:51:18;22.00;97.60
2024;DHT22;1016;48.770;9.154;2023-07-13T03:53:44;22.10;97.80
2024;DHT22;1016;48.770;9.154;2023-07-13T03:56:10;22.10;97.50
2024;DHT22;1016;48.770;9.154;2023-07-13T03:58:37;22.10;97.30
2024;DHT22;1016;48.770;9.154;2023-07-13T04:01:03;22.10;97.50
2024;DHT22;1016;48.770;9.154;2023-07-13T04:03:30;22.10;97.20
2024;DHT22;1016;48.770;9.154;2023-07-13T04:05:58;22.10;97.10
2024;DHT22;1016;48.770;9.154;2023-07-13T04:08:26;22.10;97.20
2024;DHT22;1016;48.770;9.154;2023-07-13T04:10:51;22.10;96.90
2024;DHT22;1016;48.770;9.154;2023-07-13T04:13:17;22.10;96.80
2024;DHT22;1016;48.770;9.154;2023-07-13T04:15:42;22.00;96.60
2024;DHT22;1016;48.770;9.154;2023-07-13T04:18:08;22.10;96.50
2024;DHT22;1016;48.770;9.154;2023-07-13T04:20:34;22.10;96.60
2024;DHT22;1016;48.770;9.154;2023-07-13T04:22:59;22.10;96.70
2024;DHT22;1016;48.770;9.154;2023-07-13T04:25:25;22.20;96.90
2024;DHT22;1016;48.770;9.154;2023-07-13T04:27:50;22.20;96.70
2024;DHT22;1016;48.770;9.154;2023-07-13T04:30:16;22.20;96.60
2024;DHT22;1016;48.770;9.154;2023-07-13T04:32:42;22.10;96.60
2024;DHT22;1016;48.770;9.154;2023-07-13T04:35:07;22.10;96.30
2024;DHT22;1016;48.770;9.154;2023-07-13T04:37:33;22.10;96.30
2024;DHT22;1016;48.770;9.154;2023-07-13T04:40:00;22.10;96.30
2024;DHT22;1016;48.770;9.154;2023-07-13T04:42:26;22.00;96.20
2024;DHT22;1016;48.770;9.154;2023-07-13T04:44:51;22.00;96.20
2024;DHT22;1016;48.770;9.154;2023-07-13T04:47:20;22.10;96.20
2024;DHT22;1016;48.770;9.154;2023-07-13T04:49:46;22.00;96.20
2024;DHT22;1016;48.770;9.154;2023-07-13T04:52:11;22.00;96.20
2024;DHT22;1016;48.770;9.154;2023-07-13T04:54:37;22.00;96.30
2024;DHT22;1016;48.770;9.154;2023-07-13T04:57:03;22.00;96.40
2024;DHT22;1016;48.770;9.154;2023-07-13T04:59:28;22.00;96.60
2024;DHT22;1016;48.770;9.154;2023-07-13T05:01:53;22.00;96.80
2024;DHT22;1016;48.770;9.154;2023-07-13T05:04:19;22.00;96.70
2024;DHT22;1016;48.770;9.154;2023-07-13T05:06:44;21.90;96.50
2024;DHT22;1016;48.770;9.154;2023-07-13T05:09:10;21.90;96.50
2024;DHT22;1016;48.770;9.154;2023-07-13T05:11:35;21.90;96.50
2024;DHT22;1016;48.770;9.154;2023-07-13T05:14:01;21.90;96.50
2024;DHT22;1016;48.770;9.154;2023-07-13T05:16:26;21.90;96.60
2024;DHT22;1016;48.770;9.154;2023-07-13T05:18:52;21.90;96.60
2024;DHT22;1016;48.770;9.154;2023-07-13T05:21:17;21.90;96.70
2024;DHT22;1016;48.770;9.154;2023-07-13T05:23:43;21.90;96.80
2024;DHT22;1016;48.770;9.154;2023-07-13T05:26:08;21.90;96.90
2024;DHT22;1016;48.770;9.154;2023-07-13T05:28:34;21.90;96.90
2024;DHT22;1016;48.770;9.154;2023-07-13T05:30:59;21.90;96.60
2024;DHT22;1016;48.770;9.154;2023-07-13T05:33:25;21.90;96.50
2024;DHT22;1016;48.770;9.154;2023-07-13T05:35:51;21.90;96.40
2024;DHT22;1016;48.770;9.154;2023-07-13T05:38:16;21.80;96.20
2024;DHT22;1016;48.770;9.154;2023-07-13T05:40:42;21.80;96.30
2024;DHT22;1016;48.770;9.154;2023-07-13T05:43:08;21.80;96.50
2024;DHT22;1016;48.770;9.154;2023-07-13T05:45:33;21.80;96.60
2024;DHT22;1016;48.770;9.154;2023-07-13T05:47:59;21.80;96.70
2024;DHT22;1016;48.770;9.154;2023-07-13T05:50:25;21.80;96.40
2024;DHT22;1016;48.770;9.154;2023-07-13T05:52:50;21.80;96.10
2024;DHT22;1016;48.770;9.154;2023-07-13T05:55:17;21.80;96.10
2024;DHT22;1016;48.770;9.154;2023-07-13T05:57:43;21.80;95.90
2024;DHT22;1016;48.770;9.154;2023-07-13T06:00:08;21.80;96.00
2024;DHT22;1016;48.770;9.154;2023-07-13T06:02:34;21.80;96.00
2024;DHT22;1016;48.770;9.154;2023-07-13T06:04:59;21.80;95.70
2024;DHT22;1016;48.770;9.154;2023-07-13T06:07:25;21.80;95.60
2024;DHT22;1016;48.770;9.154;2023-07-13T06:09:50;21.80;95.50
2024;DHT22;1016;48.770;9.154;2023-07-13T06:12:16;21.80;95.40
2024;DHT22;1016;48.770;9.154;2023-07-13T06:14:41;21.80;95.20
2024;DHT22;1016;48.770;9.154;2023-07-13T06:17:07;21.80;95.20
2024;DHT22;1016;48.770;9.154;2023-07-13T06:19:33;21.90;95.40
2024;DHT22;1016;48.770;9.154;2023-07-13T06:21:58;21.90;95.20
2024;DHT22;1016;48.770;9.154;2023-07-13T06:24:24;21.90;95.30
2024;DHT22;1016;48.770;9.154;2023-07-13T06:26:49;22.00;95.40
2024;DHT22;1016;48.770;9.154;2023-07-13T06:29:15;22.00;95.40
2024;DHT22;1016;48.770;9.154;2023-07-13T06:31:40;22.00;95.40
2024;DHT22;1016;48.770;9.154;2023-07-13T06:34:06;22.00;95.20
2024;DHT22;1016;48.770;9.154;2023-07-13T06:36:31;22.00;95.10
2024;DHT22;1016;48.770;9.154;2023-07-13T06:38:57;22.10;95.30
2024;DHT22;1016;48.770;9.154;2023-07-13T06:41:22;22.10;95.40
2024;DHT22;1016;48.770;9.154;2023-07-13T06:43:50;22.20;95.30
2024;DHT22;1016;48.770;9.154;2023-07-13T06:46:15;22.30;95.60
2024;DHT22;1016;48.770;9.154;2023-07-13T06:48:40;22.30;95.40
2024;DHT22;1016;48.770;9.154;2023-07-13T06:51:06;22.30;95.00
2024;DHT22;1016;48.770;9.154;2023-07-13T06:53:31;22.40;94.40
2024;DHT22;1016;48.770;9.154;2023-07-13T06:55:57;22.40;94.20
2024;DHT22;1016;48.770;9.154;2023-07-13T06:58:22;22.40;94.20
2024;DHT22;1016;48.770;9.154;2023-07-13T07:00:50;22.40;94.30
2024;DHT22;1016;48.770;9.154;2023-07-13T07:03:15;22.40;94.40
2024;DHT22;1016;48.770;9.154;2023-07-13T07:05:41;22.50;94.40
2024;DHT22;1016;48.770;9.154;2023-07-13T07:08:06;22.50;94.40
2024;DHT22;1016;48.770;9.154;2023-07-13T07:10:32;22.50;94.30
2024;DHT22;1016;48.770;9.154;2023-07-13T07:12:58;22.50;94.20
2024;DHT22;1016;48.770;9.154;2023-07-13T07:15:23;22.60;94.00
2024;DHT22;1016;48.770;9.154;2023-07-13T07:17:49;22.60;94.10
2024;DHT22;1016;48.770;9.154;2023-07-13T07:20:14;22.60;94.20
2024;DHT22;1016;48.770;9.154;2023-07-13T07:22:40;22.60;94.20
2024;DHT22;1016;48.770;9.154;2023-07-13T07:25:05;22.60;93.90
2024;DHT22;1016;48.770;9.154;2023-07-13T07:27:31;22.60;93.90
2024;DHT22;1016;48.770;9.154;2023-07-13T07:29:57;22.60;93.70
2024;DHT22;1016;48.770;9.154;2023-07-13T07:32:23;22.60;93.80
2024;DHT22;1016;48.770;9.154;2023-07-13T07:34:48;22.70;93.70
2024;DHT22;1016;48.770;9.154;2023-07-13T07:37:14;22.70;93.00
2024;DHT22;1016;48.770;9.154;2023-07-13T07:39:39;22.70;93.10
2024;DHT22;1016;48.770;9.154;2023-07-13T07:42:05;22.70;92.80
2024;DHT22;1016;48.770;9.154;2023-07-13T07:44:33;22.80;92.50
2024;DHT22;1016;48.770;9.154;2023-07-13T07:46:59;22.80;92.30
2024;DHT22;1016;48.770;9.154;2023-07-13T07:49:25;22.80;92.10
2024;DHT22;1016;48.770;9.154;2023-07-13T07:51:50;22.80;91.80
2024;DHT22;1016;48.770;9.154;2023-07-13T07:54:16;22.70;91.50
2024;DHT22;1016;48.770;9.154;2023-07-13T07:56:42;22.90;91.50
2024;DHT22;1016;48.770;9.154;2023-07-13T07:59:07;22.90;90.20
2024;DHT22;1016;48.770;9.154;2023-07-13T08:01:33;22.90;90.10
2024;DHT22;1016;48.770;9.154;2023-07-13T08:03:58;23.00;90.30
2024;DHT22;1016;48.770;9.154;2023-07-13T08:06:24;23.00;90.70
2024;DHT22;1016;48.770;9.154;2023-07-13T08:08:49;23.00;90.90
2024;DHT22;1016;48.770;9.154;2023-07-13T08:11:15;23.00;90.50
2024;DHT22;1016;48.770;9.154;2023-07-13T08:13:41;23.00;90.60
2024;DHT22;1016;48.770;9.154;2023-07-13T08:16:07;23.10;90.60
2024;DHT22;1016;48.770;9.154;2023-07-13T08:18:32;23.10;90.60
2024;DHT22;1016;48.770;9.154;2023-07-13T08:20:58;23.10;90.60
2024;DHT22;1016;48.770;9.154;2023-07-13T08:23:24;23.20;90.60
2024;DHT22;1016;48.770;9.154;2023-07-13T08:25:53;23.20;90.70
2024;DHT22;1016;48.770;9.154;2023-07-13T08:28:19;23.30;90.60
2024;DHT22;1016;48.770;9.154;2023-07-13T08:30:45;23.30;90.60
2024;DHT22;1016;48.770;9.154;2023-07-13T08:33:17;23.30;90.60
2024;DHT22;1016;48.770;9.154;2023-07-13T08:35:46;23.40;90.60
2024;DHT22;1016;48.770;9.154;2023-07-13T08:38:12;23.40;90.50
2024;DHT22;1016;48.770;9.154;2023-07-13T08:40:37;23.40;90.40
2024;DHT22;1016;48.770;9.154;2023-07-13T08:43:04;23.50;90.50
2024;DHT22;1016;48.770;9.154;2023-07-13T08:53:14;23.60;90.80
2024;DHT22;1016;48.770;9.154;2023-07-13T08:55:40;23.60;90.60
2024;DHT22;1016;48.770;9.154;2023-07-13T08:58:09;23.50;90.70
2024;DHT22;1016;48.770;9.154;2023-07-13T09:00:39;23.60;90.90
2024;DHT22;1016;48.770;9.154;2023-07-13T09:03:06;23.60;90.10
2024;DHT22;1016;48.770;9.154;2023-07-13T09:05:41;23.60;90.20
2024;DHT22;1016;48.770;9.154;2023-07-13T09:10:36;23.70;90.40
2024;DHT22;1016;48.770;9.154;2023-07-13T09:15:40;23.60;90.60
2024;DHT22;1016;48.770;9.154;2023-07-13T09:18:10;23.70;90.60
2024;DHT22;1016;48.770;9.154;2023-07-13T09:20:46;23.70;90.60
2024;DHT22;1016;48.770;9.154;2023-07-13T09:23:16;23.80;90.60
2024;DHT22;1016;48.770;9.154;2023-07-13T09:25:43;23.80;90.30
2024;DHT22;1016;48.770;9.154;2023-07-13T09:28:20;23.80;90.50
2024;DHT22;1016;48.770;9.154;2023-07-13T09:31:06;23.80;90.60
2024;DHT22;1016;48.770;9.154;2023-07-13T09:33:32;23.80;90.60
2024;DHT22;1016;48.770;9.154;2023-07-13T09:36:00;23.90;90.00
2024;DHT22;1016;48.770;9.154;2023-07-13T09:38:27;23.90;88.90
2024;DHT22;1016;48.770;9.154;2023-07-13T09:41:01;23.80;89.20
2024;DHT22;1016;48.770;9.154;2023-07-13T09:43:28;23.80;89.40
2024;DHT22;1016;48.770;9.154;2023-07-13T09:45:54;23.80;89.30
2024;DHT22;1016;48.770;9.154;2023-07-13T09:48:19;23.80;89.10
2024;DHT22;1016;48.770;9.154;2023-07-13T09:50:45;23.80;89.10
2024;DHT22;1016;48.770;9.154;2023-07-13T09:53:12;23.90;89.00
2024;DHT22;1016;48.770;9.154;2023-07-13T09:55:38;23.90;88.70
2024;DHT22;1016;48.770;9.154;2023-07-13T09:58:11;24.00;88.50
2024;DHT22;1016;48.770;9.154;2023-07-13T10:00:38;24.00;88.80
2024;DHT22;1016;48.770;9.154;2023-07-13T10:03:09;24.00;88.80
2024;DHT22;1016;48.770;9.154;2023-07-13T10:05:41;24.00;88.60
2024;DHT22;1016;48.770;9.154;2023-07-13T10:08:14;24.00;87.90
2024;DHT22;1016;48.770;9.154;2023-07-13T10:10:40;24.00;87.80
2024;DHT22;1016;48.770;9.154;2023-07-13T10:13:10;24.00;87.80
2024;DHT22;1016;48.770;9.154;2023-07-13T10:15:45;24.10;86.90
2024;DHT22;1016;48.770;9.154;2023-07-13T10:18:10;24.00;86.80
2024;DHT22;1016;48.770;9.154;2023-07-13T10:20:36;24.00;86.80
2024;DHT22;1016;48.770;9.154;2023-07-13T10:23:02;24.10;86.90
2024;DHT22;1016;48.770;9.154;2023-07-13T10:25:36;24.10;86.50
2024;DHT22;1016;48.770;9.154;2023-07-13T10:28:26;24.10;86.60
2024;DHT22;1016;48.770;9.154;2023-07-13T10:30:49;24.20;86.80
2024;DHT22;1016;48.770;9.154;2023-07-13T10:33:15;24.20;87.00
2024;DHT22;1016;48.770;9.154;2023-07-13T10:35:42;24.20;86.70
2024;DHT22;1016;48.770;9.154;2023-07-13T10:38:15;24.20;86.80
2024;DHT22;1016;48.770;9.154;2023-07-13T10:40:45;24.20;86.60
2024;DHT22;1016;48.770;9.154;2023-07-13T10:45:41;24.20;85.60
2024;DHT22;1016;48.770;9.154;2023-07-13T10:48:09;24.30;85.80
2024;DHT22;1016;48.770;9.154;2023-07-13T10:50:37;24.20;85.30
2024;DHT22;1016;48.770;9.154;2023-07-13T10:53:22;24.20;85.50
2024;DHT22;1016;48.770;9.154;2023-07-13T10:58:22;24.30;85.40
2024;DHT22;1016;48.770;9.154;2023-07-13T11:00:49;24.30;85.40
2024;DHT22;1016;48.770;9.154;2023-07-13T11:03:16;24.30;85.40
2024;DHT22;1016;48.770;9.154;2023-07-13T11:05:42;24.20;85.40
2024;DHT22;1016;48.770;9.154;2023-07-13T11:10:46;24.40;85.00
2024;DHT22;1016;48.770;9.154;2023-07-13T11:15:58;24.40;85.20
2024;DHT22;1016;48.770;9.154;2023-07-13T11:18:23;24.40;85.20
2024;DHT22;1016;48.770;9.154;2023-07-13T11:20:50;24.50;85.50
2024;DHT22;1016;48.770;9.154;2023-07-13T11:25:42;24.60;85.30
2024;DHT22;1016;48.770;9.154;2023-07-13T11:36:02;24.50;84.60
2024;DHT22;1016;48.770;9.154;2023-07-13T11:38:36;24.60;85.00
2024;DHT22;1016;48.770;9.154;2023-07-13T11:41:03;24.60;85.00
2024;DHT22;1016;48.770;9.154;2023-07-13T11:43:29;24.60;85.10
2024;DHT22;1016;48.770;9.154;2023-07-13T11:45:54;24.70;85.00
2024;DHT22;1016;48.770;9.154;2023-07-13T11:48:25;24.80;84.70
2024;DHT22;1016;48.770;9.154;2023-07-13T11:50:51;24.80;84.40
2024;DHT22;1016;48.770;9.154;2023-07-13T11:53:18;24.90;84.30
2024;DHT22;1016;48.770;9.154;2023-07-13T11:55:44;24.90;84.10
2024;DHT22;1016;48.770;9.154;2023-07-13T11:58:10;24.90;83.70
2024;DHT22;1016;48.770;9.154;2023-07-13T12:00:36;25.00;83.40
2024;DHT22;1016;48.770;9.154;2023-07-13T12:03:03;25.00;83.70
2024;DHT22;1016;48.770;9.154;2023-07-13T12:05:30;25.00;83.70
2024;DHT22;1016;48.770;9.154;2023-07-13T12:07:57;25.00;83.80
2024;DHT22;1016;48.770;9.154;2023-07-13T12:10:24;25.00;84.00
2024;DHT22;1016;48.770;9.154;2023-07-13T12:12:55;25.00;83.50
2024;DHT22;1016;48.770;9.154;2023-07-13T12:15:21;25.10;83.50
2024;DHT22;1016;48.770;9.154;2023-07-13T12:17:47;25.10;83.50
2024;DHT22;1016;48.770;9.154;2023-07-13T12:20:21;25.10;83.50
2024;DHT22;1016;48.770;9.154;2023-07-13T12:22:49;25.20;82.90
2024;DHT22;1016;48.770;9.154;2023-07-13T12:25:15;25.20;82.70
2024;DHT22;1016;48.770;9.154;2023-07-13T12:27:41;25.20;82.40
2024;DHT22;1016;48.770;9.154;2023-07-13T12:30:24;25.20;81.90
2024;DHT22;1016;48.770;9.154;2023-07-13T12:33:01;25.30;80.40
2024;DHT22;1016;48.770;9.154;2023-07-13T12:35:28;25.30;81.30
2024;DHT22;1016;48.770;9.154;2023-07-13T12:37:56;25.30;81.40
2024;DHT22;1016;48.770;9.154;2023-07-13T12:40:21;25.30;81.40
2024;DHT22;1016;48.770;9.154;2023-07-13T12:42:51;25.30;80.60
2024;DHT22;1016;48.770;9.154;2023-07-13T12:45:26;25.40;80.60
2024;DHT22;1016;48.770;9.154;2023-07-13T12:47:54;25.40;80.40
2024;DHT22;1016;48.770;9.154;2023-07-13T12:50:21;25.50;80.00
2024;DHT22;1016;48.770;9.154;2023-07-13T12:52:51;25.50;80.40
2024;DHT22;1016;48.770;9.154;2023-07-13T12:55:18;25.50;80.30
2024;DHT22;1016;48.770;9.154;2023-07-13T12:57:51;25.50;79.20
2024;DHT22;1016;48.770;9.154;2023-07-13T13:00:33;25.50;79.00
2024;DHT22;1016;48.770;9.154;2023-07-13T13:03:07;25.50;79.20
2024;DHT22;1016;48.770;9.154;2023-07-13T13:05:36;25.60;78.40
2024;DHT22;1016;48.770;9.154;2023-07-13T13:08:03;25.60;77.90
2024;DHT22;1016;48.770;9.154;2023-07-13T13:10:28;25.60;77.90
2024;DHT22;1016;48.770;9.154;2023-07-13T13:12:54;25.60;78.00
2024;DHT22;1016;48.770;9.154;2023-07-13T13:15:20;25.60;78.30
2024;DHT22;1016;48.770;9.154;2023-07-13T13:17:47;25.70;77.90
2024;DHT22;1016;48.770;9.154;2023-07-13T13:20:16;25.70;77.70
2024;DHT22;1016;48.770;9.154;2023-07-13T13:22:42;25.70;76.70
2024;DHT22;1016;48.770;9.154;2023-07-13T13:25:09;25.70;76.40
2024;DHT22;1016;48.770;9.154;2023-07-13T13:27:35;25.70;76.60
2024;DHT22;1016;48.770;9.154;2023-07-13T13:30:00;25.70;76.60
2024;DHT22;1016;48.770;9.154;2023-07-13T13:32:26;25.80;76.60
2024;DHT22;1016;48.770;9.154;2023-07-13T13:34:51;25.80;76.30
2024;DHT22;1016;48.770;9.154;2023-07-13T13:37:18;25.80;76.30
2024;DHT22;1016;48.770;9.154;2023-07-13T13:39:44;25.80;76.20
2024;DHT22;1016;48.770;9.154;2023-07-13T13:42:10;25.80;76.40
2024;DHT22;1016;48.770;9.154;2023-07-13T13:44:36;25.80;74.90
2024;DHT22;1016;48.770;9.154;2023-07-13T13:47:01;25.90;74.80
2024;DHT22;1016;48.770;9.154;2023-07-13T13:49:27;25.90;75.20
2024;DHT22;1016;48.770;9.154;2023-07-13T13:51:53;25.90;75.60
2024;DHT22;1016;48.770;9.154;2023-07-13T13:54:20;25.90;75.50
2024;DHT22;1016;48.770;9.154;2023-07-13T13:56:47;25.90;75.60
2024;DHT22;1016;48.770;9.154;2023-07-13T13:59:13;25.90;75.10
2024;DHT22;1016;48.770;9.154;2023-07-13T14:01:39;25.90;75.10
2024;DHT22;1016;48.770;9.154;2023-07-13T14:04:05;26.00;75.40
2024;DHT22;1016;48.770;9.154;2023-07-13T14:06:32;26.20;75.70
2024;DHT22;1016;48.770;9.154;2023-07-13T14:08:57;26.30;74.80
2024;DHT22;1016;48.770;9.154;2023-07-13T14:11:23;26.30;75.00
2024;DHT22;1016;48.770;9.154;2023-07-13T14:13:55;26.50;75.20
2024;DHT22;1016;48.770;9.154;2023-07-13T14:16:21;26.60;74.30
2024;DHT22;1016;48.770;9.154;2023-07-13T14:18:48;26.70;74.20
2024;DHT22;1016;48.770;9.154;2023-07-13T14:21:14;26.80;74.10
2024;DHT22;1016;48.770;9.154;2023-07-13T14:23:40;26.80;73.60
2024;DHT22;1016;48.770;9.154;2023-07-13T14:26:10;26.70;73.90
2024;DHT22;1016;48.770;9.154;2023-07-13T14:28:36;26.70;74.00
2024;DHT22;1016;48.770;9.154;2023-07-13T14:31:03;26.80;74.20
2024;DHT22;1016;48.770;9.154;2023-07-13T14:33:28;26.90;73.60
2024;DHT22;1016;48.770;9.154;2023-07-13T14:35:56;26.90;73.10
2024;DHT22;1016;48.770;9.154;2023-07-13T14:38:21;26.90;73.00
2024;DHT22;1016;48.770;9.154;2023-07-13T14:40:47;26.90;72.20
2024;DHT22;1016;48.770;9.154;2023-07-13T14:43:12;26.90;72.50
2024;DHT22;1016;48.770;9.154;2023-07-13T14:45:40;26.90;71.90
2024;DHT22;1016;48.770;9.154;2023-07-13T14:48:16;26.90;71.90
2024;DHT22;1016;48.770;9.154;2023-07-13T14:50:42;27.00;72.10
2024;DHT22;1016;48.770;9.154;2023-07-13T14:53:11;26.90;71.40
2024;DHT22;1016;48.770;9.154;2023-07-13T14:55:37;26.80;71.50
2024;DHT22;1016;48.770;9.154;2023-07-13T14:58:02;26.80;71.40
2024;DHT22;1016;48.770;9.154;2023-07-13T15:00:28;26.70;71.10
2024;DHT22;1016;48.770;9.154;2023-07-13T15:02:54;26.70;71.40
2024;DHT22;1016;48.770;9.154;2023-07-13T15:05:21;26.60;71.10
2024;DHT22;1016;48.770;9.154;2023-07-13T15:07:48;26.60;71.00
2024;DHT22;1016;48.770;9.154;2023-07-13T15:10:15;26.50;71.30
2024;DHT22;1016;48.770;9.154;2023-07-13T15:12:41;26.50;71.10
2024;DHT22;1016;48.770;9.154;2023-07-13T15:15:07;26.50;72.00
2024;DHT22;1016;48.770;9.154;2023-07-13T15:17:35;26.40;72.00
2024;DHT22;1016;48.770;9.154;2023-07-13T15:20:04;26.50;71.80
2024;DHT22;1016;48.770;9.154;2023-07-13T15:22:31;26.50;72.50
2024;DHT22;1016;48.770;9.154;2023-07-13T15:24:56;26.60;72.70
2024;DHT22;1016;48.770;9.154;2023-07-13T15:27:21;26.80;72.00
2024;DHT22;1016;48.770;9.154;2023-07-13T15:29:47;27.20;72.00
2024;DHT22;1016;48.770;9.154;2023-07-13T15:32:13;27.40;71.10
2024;DHT22;1016;48.770;9.154;2023-07-13T15:34:38;27.30;70.30
2024;DHT22;1016;48.770;9.154;2023-07-13T15:37:07;27.10;70.50
2024;DHT22;1016;48.770;9.154;2023-07-13T15:39:33;26.90;70.60
2024;DHT22;1016;48.770;9.154;2023-07-13T15:42:00;26.70;71.00
2024;DHT22;1016;48.770;9.154;2023-07-13T15:46:51;26.60;70.20
2024;DHT22;1016;48.770;9.154;2023-07-13T15:49:16;26.50;70.00
2024;DHT22;1016;48.770;9.154;2023-07-13T15:51:42;26.50;70.70
2024;DHT22;1016;48.770;9.154;2023-07-13T15:54:08;26.40;70.90
2024;DHT22;1016;48.770;9.154;2023-07-13T15:56:37;26.40;70.50
2024;DHT22;1016;48.770;9.154;2023-07-13T15:59:03;26.40;70.70
2024;DHT22;1016;48.770;9.154;2023-07-13T16:01:29;26.30;70.40
2024;DHT22;1016;48.770;9.154;2023-07-13T16:03:55;26.40;70.30
2024;DHT22;1016;48.770;9.154;2023-07-13T16:06:24;26.40;70.40
2024;DHT22;1016;48.770;9.154;2023-07-13T16:08:51;26.40;69.60
2024;DHT22;1016;48.770;9.154;2023-07-13T16:11:21;26.50;69.90
2024;DHT22;1016;48.770;9.154;2023-07-13T16:13:47;26.50;69.90
2024;DHT22;1016;48.770;9.154;2023-07-13T16:16:19;26.40;70.00
2024;DHT22;1016;48.770;9.154;2023-07-13T16:18:44;26.30;70.30
2024;DHT22;1016;48.770;9.154;2023-07-13T16:21:11;26.30;70.70
2024;DHT22;1016;48.770;9.154;2023-07-13T16:23:37;26.20;70.60
2024;DHT22;1016;48.770;9.154;2023-07-13T16:26:02;26.20;71.30
2024;DHT22;1016;48.770;9.154;2023-07-13T16:28:28;26.20;71.00
2024;DHT22;1016;48.770;9.154;2023-07-13T16:30:54;26.20;70.90
2024;DHT22;1016;48.770;9.154;2023-07-13T16:33:19;26.20;70.80
2024;DHT22;1016;48.770;9.154;2023-07-13T16:35:47;26.10;70.00
2024;DHT22;1016;48.770;9.154;2023-07-13T16:38:13;26.20;70.40
2024;DHT22;1016;48.770;9.154;2023-07-13T16:40:39;26.00;70.50
2024;DHT22;1016;48.770;9.154;2023-07-13T16:43:08;26.00;70.20